Jandaia do Sul, Brazil
Current Conditions -  °F | °C
As of 10:07 AM on Wednesday 26 Nov 2014 (Local Time) from SBMG Reporting Station
Broken Clouds Broken Clouds  
Wind Chill: 75°   Ceiling: 900
Heat Index: 75°   Visibility: 5mi
Dew Point: 70°   Wind: 3mph
Humidity: 83%   Direction: 340°NNW
Pressure: 29.85"   Gusts: NA
Location:  23.6°S, 51.64°W
Report Text: SBMG 261207Z 34003KT 8000 BKN009 BKN035 BKN080 24/21 Q1011
Loading
Personal Weather Stations






























Interactive Weather Map New forecast layout! Learn more

10-Day Weather Forecast

Advertisements
Track Severe Weather on mobile